createdAt,value
2023-03-11T00:00:57.221Z,36.30
2023-03-11T00:03:25.776Z,39.93
2023-03-11T00:05:54.886Z,38.83
2023-03-11T00:08:25.446Z,41.13
2023-03-11T00:10:58.730Z,41.93
2023-03-11T00:13:27.579Z,36.43
2023-03-11T00:15:56.957Z,39.87
2023-03-11T00:18:27.103Z,35.20
2023-03-11T00:20:56.344Z,40.90
2023-03-11T00:23:25.133Z,41.70
2023-03-11T00:25:55.088Z,39.63
2023-03-11T00:28:25.986Z,41.33
2023-03-11T00:30:54.458Z,39.83
2023-03-11T00:33:22.712Z,39.37
2023-03-11T00:35:51.964Z,38.13
2023-03-11T00:38:20.323Z,40.13
2023-03-11T00:40:50.280Z,38.97
2023-03-11T00:43:20.186Z,38.73
2023-03-11T00:45:48.393Z,36.07
2023-03-11T00:48:16.524Z,35.80
2023-03-11T00:50:45.016Z,38.43
2023-03-11T00:53:13.501Z,39.30
2023-03-11T00:55:41.673Z,42.80
2023-03-11T00:58:11.715Z,38.33
2023-03-11T01:00:41.708Z,35.90
2023-03-11T01:03:10.038Z,43.23
2023-03-11T01:05:38.248Z,41.03
2023-03-11T01:08:07.077Z,38.07
2023-03-11T01:10:36.137Z,39.13
2023-03-11T01:13:05.524Z,38.73
2023-03-11T01:15:36.184Z,39.73
2023-03-11T01:18:06.663Z,41.40
2023-03-11T01:20:34.999Z,44.90
2023-03-11T01:23:03.150Z,38.97
2023-03-11T01:25:31.347Z,38.37
2023-03-11T01:27:59.511Z,40.37
2023-03-11T01:30:28.811Z,37.13
2023-03-11T01:32:57.703Z,34.50
2023-03-11T01:35:29.056Z,40.20
2023-03-11T01:37:57.655Z,34.07
2023-03-11T01:40:29.901Z,35.90
2023-03-11T01:42:58.517Z,33.93
2023-03-11T01:46:07.910Z,36.63
2023-03-11T01:48:36.104Z,36.73
2023-03-11T01:51:06.976Z,40.40
2023-03-11T01:53:35.586Z,33.40
2023-03-11T01:56:05.056Z,36.40
2023-03-11T01:58:38.707Z,31.57
2023-03-11T02:01:08.833Z,29.90
2023-03-11T02:03:40.237Z,32.90
2023-03-11T02:06:13.267Z,32.80
2023-03-11T02:08:43.337Z,31.30
2023-03-11T02:11:14.800Z,32.27
2023-03-11T02:13:44.576Z,31.83
2023-03-11T02:16:14.103Z,36.50
2023-03-11T02:18:43.906Z,33.57
2023-03-11T02:21:23.777Z,29.57
2023-03-11T02:24:00.746Z,29.13
2023-03-11T02:26:34.013Z,28.57
2023-03-11T02:29:06.998Z,33.90
2023-03-11T02:31:37.156Z,30.47
2023-03-11T02:34:08.064Z,32.40
2023-03-11T02:36:39.004Z,25.40
2023-03-11T02:39:08.166Z,32.30
2023-03-11T02:41:39.699Z,27.07
2023-03-11T02:44:12.706Z,24.40
2023-03-11T02:46:43.659Z,28.80
2023-03-11T02:49:20.976Z,24.33
2023-03-11T02:51:49.164Z,25.40
2023-03-11T02:54:17.543Z,23.73
2023-03-11T02:56:45.876Z,22.90
2023-03-11T02:59:15.367Z,27.50
2023-03-11T03:01:46.021Z,26.47
2023-03-11T03:04:14.222Z,25.80
2023-03-11T03:06:42.417Z,30.37
2023-03-11T03:09:10.588Z,24.60
2023-03-11T03:11:38.759Z,24.60
2023-03-11T03:14:06.915Z,22.97
2023-03-11T03:16:36.549Z,23.57
2023-03-11T03:19:04.794Z,26.53
2023-03-11T03:21:32.928Z,22.27
2023-03-11T03:24:01.155Z,26.30
2023-03-11T03:26:29.344Z,25.23
2023-03-11T03:28:57.452Z,23.77
2023-03-11T03:31:26.607Z,26.33
2023-03-11T03:33:56.177Z,24.07
2023-03-11T03:36:24.468Z,21.53
2023-03-11T03:38:55.991Z,24.93
2023-03-11T03:41:24.187Z,26.47
2023-03-11T03:43:52.718Z,23.93
2023-03-11T03:46:20.914Z,26.23
2023-03-11T03:48:49.078Z,27.13
2023-03-11T03:51:18.953Z,24.30
2023-03-11T03:53:47.568Z,22.60
2023-03-11T03:56:17.410Z,26.40
2023-03-11T03:58:45.941Z,28.17
2023-03-11T04:01:14.340Z,26.50
2023-03-11T04:03:42.676Z,23.17
2023-03-11T04:06:16.348Z,22.30
2023-03-11T04:08:45.856Z,18.63
2023-03-11T04:11:14.329Z,23.23
2023-03-11T04:13:44.691Z,21.10
2023-03-11T04:16:18.299Z,23.93
2023-03-11T04:18:46.559Z,23.63
2023-03-11T04:21:14.705Z,35.53
2023-03-11T04:23:43.030Z,65.30
2023-03-11T04:26:12.580Z,66.60
2023-03-11T04:28:40.714Z,63.87
2023-03-11T04:31:08.988Z,50.70
2023-03-11T04:33:37.139Z,57.00
2023-03-11T04:36:07.750Z,47.10
2023-03-11T04:38:36.296Z,48.70
2023-03-11T04:41:06.321Z,37.03
2023-03-11T04:43:36.155Z,33.23
2023-03-11T04:46:04.553Z,27.37
2023-03-11T04:48:32.755Z,24.87
2023-03-11T04:51:00.922Z,19.50
2023-03-11T04:53:29.070Z,17.70
2023-03-11T04:55:57.205Z,19.53
2023-03-11T04:58:25.317Z,16.53
2023-03-11T05:00:56.294Z,16.27
2023-03-11T05:03:24.768Z,16.27
2023-03-11T05:05:56.650Z,15.63
2023-03-11T05:08:25.367Z,17.27
2023-03-11T05:10:54.239Z,19.03
2023-03-11T05:13:23.290Z,14.70
2023-03-11T05:15:51.481Z,17.20
2023-03-11T05:18:21.028Z,15.83
2023-03-11T05:20:49.320Z,16.60
2023-03-11T05:23:17.433Z,15.10
2023-03-11T05:25:45.634Z,13.83
2023-03-11T05:28:13.908Z,14.50
2023-03-11T05:30:42.037Z,20.60
2023-03-11T05:33:10.224Z,13.03
2023-03-11T05:35:39.722Z,13.93
2023-03-11T05:38:07.834Z,14.10
2023-03-11T05:40:35.939Z,15.13
2023-03-11T05:43:04.208Z,14.83
2023-03-11T05:45:32.349Z,13.63
2023-03-11T05:48:00.479Z,11.47
2023-03-11T05:50:28.644Z,12.77
2023-03-11T05:52:58.147Z,14.87
2023-03-11T05:55:26.345Z,15.20
2023-03-11T05:57:54.475Z,14.03
2023-03-11T06:00:23.919Z,11.60
2023-03-11T06:02:52.106Z,9.13
2023-03-11T06:05:20.262Z,10.80
2023-03-11T06:07:48.675Z,12.10
2023-03-11T06:10:18.780Z,11.50
2023-03-11T06:12:46.892Z,11.20
2023-03-11T06:15:15.011Z,11.83
2023-03-11T06:17:43.137Z,12.73
2023-03-11T06:20:12.624Z,15.40
2023-03-11T06:22:40.791Z,13.07
2023-03-11T06:25:09.746Z,13.80
2023-03-11T06:27:39.300Z,14.30
2023-03-11T06:30:08.526Z,14.20
2023-03-11T06:32:37.295Z,13.73
2023-03-11T06:35:05.968Z,14.30
2023-03-11T06:37:37.323Z,15.20
2023-03-11T06:40:07.469Z,13.63
2023-03-11T06:42:35.656Z,12.20
2023-03-11T06:45:05.658Z,15.90
2023-03-11T06:47:33.930Z,13.67
2023-03-11T06:50:06.476Z,13.20
2023-03-11T06:52:34.630Z,16.13
2023-03-11T06:55:03.679Z,17.07
2023-03-11T06:57:32.045Z,17.43
2023-03-11T07:00:00.275Z,21.80
2023-03-11T07:02:29.888Z,18.37
2023-03-11T07:04:58.021Z,18.57
2023-03-11T07:07:26.312Z,21.37
2023-03-11T07:09:57.672Z,18.33
2023-03-11T07:12:26.093Z,18.67
2023-03-11T07:14:57.277Z,24.43
2023-03-11T07:17:25.925Z,21.00
2023-03-11T07:19:55.537Z,23.80
2023-03-11T07:22:23.664Z,41.47
2023-03-11T07:24:52.055Z,24.03
2023-03-11T07:27:20.196Z,28.23
2023-03-11T07:29:48.538Z,27.03
2023-03-11T07:32:16.723Z,26.97
2023-03-11T07:34:44.873Z,28.67
2023-03-11T07:37:14.467Z,25.93
2023-03-11T07:39:42.627Z,28.43
2023-03-11T07:42:10.812Z,33.73
2023-03-11T07:44:39.027Z,32.50
2023-03-11T07:47:07.828Z,25.17
2023-03-11T07:49:35.956Z,33.10
2023-03-11T07:52:04.119Z,29.97
2023-03-11T07:54:33.610Z,32.53
2023-03-11T07:57:03.697Z,30.87
2023-03-11T07:59:31.843Z,31.27
2023-03-11T08:02:00.200Z,28.00
2023-03-11T08:04:28.462Z,33.93
2023-03-11T08:06:56.608Z,32.53
2023-03-11T08:09:24.745Z,36.33
2023-03-11T08:11:54.280Z,39.60
2023-03-11T08:14:22.466Z,37.27
2023-03-11T08:16:50.630Z,38.77
2023-03-11T08:19:19.155Z,43.60
2023-03-11T08:21:47.624Z,49.40
2023-03-11T08:24:16.177Z,45.43
2023-03-11T08:26:44.573Z,52.53
2023-03-11T08:29:14.200Z,54.27
2023-03-11T08:31:42.415Z,51.33
2023-03-11T08:34:11.977Z,53.77
2023-03-11T08:36:40.252Z,53.07
2023-03-11T08:39:08.447Z,54.93
2023-03-11T08:41:37.054Z,46.73
2023-03-11T08:44:05.403Z,56.60
2023-03-11T08:46:36.899Z,51.67
2023-03-11T08:49:06.015Z,52.07
2023-03-11T08:51:36.038Z,54.00
2023-03-11T08:54:05.478Z,46.53
2023-03-11T08:56:33.656Z,45.07
2023-03-11T08:59:01.923Z,52.67
2023-03-11T09:01:30.534Z,57.50
2023-03-11T09:04:00.253Z,48.03
2023-03-11T09:06:30.648Z,78.60
2023-03-11T09:08:59.161Z,29.23
2023-03-11T09:11:27.496Z,35.87
2023-03-11T09:13:55.728Z,29.43
2023-03-11T09:16:25.112Z,39.17
2023-03-11T09:18:53.386Z,38.07
2023-03-11T09:21:23.242Z,35.30
2023-03-11T09:23:51.467Z,36.10
2023-03-11T09:26:21.761Z,36.20
2023-03-11T09:28:49.951Z,30.37
2023-03-11T09:31:19.172Z,30.60
2023-03-11T09:33:47.946Z,27.40
2023-03-11T09:36:17.758Z,28.53
2023-03-11T09:38:47.706Z,24.73
2023-03-11T09:41:30.737Z,22.73
2023-03-11T09:44:17.113Z,20.80
2023-03-11T09:47:04.758Z,19.17
2023-03-11T09:49:45.094Z,22.17
2023-03-11T09:52:15.319Z,23.73
2023-03-11T09:54:48.526Z,21.23
2023-03-11T09:57:20.775Z,21.07
2023-03-11T09:59:49.869Z,20.37
2023-03-11T10:02:21.044Z,17.93
2023-03-11T10:04:57.377Z,19.40
2023-03-11T10:07:29.717Z,16.20
2023-03-11T10:10:00.391Z,17.23
2023-03-11T10:12:42.677Z,23.67
2023-03-11T10:15:18.924Z,22.27
2023-03-11T10:17:56.742Z,26.53
2023-03-11T10:20:29.253Z,23.77
2023-03-11T10:23:09.860Z,17.60
2023-03-11T10:25:48.795Z,19.90
2023-03-11T10:28:19.809Z,15.10
2023-03-11T10:30:51.427Z,20.87
2023-03-11T10:33:25.209Z,14.00
2023-03-11T10:35:55.434Z,17.00
2023-03-11T10:38:26.251Z,15.40
2023-03-11T10:40:59.160Z,11.23
2023-03-11T10:43:30.046Z,13.23
2023-03-11T10:45:58.520Z,10.93
2023-03-11T10:48:27.312Z,12.93
2023-03-11T10:51:02.866Z,11.03
2023-03-11T10:53:31.709Z,13.57
2023-03-11T10:56:01.484Z,12.60
2023-03-11T10:58:31.775Z,10.17
2023-03-11T11:01:05.291Z,11.47
2023-03-11T11:03:34.717Z,10.33
2023-03-11T11:06:05.790Z,10.53
2023-03-11T11:08:34.794Z,9.27
2023-03-11T11:11:05.640Z,11.03
2023-03-11T11:13:35.536Z,9.33
2023-03-11T11:16:05.546Z,15.20
2023-03-11T11:18:36.195Z,9.00
2023-03-11T11:21:07.034Z,12.50
2023-03-11T11:23:42.639Z,8.70
2023-03-11T11:26:21.306Z,13.40
2023-03-11T11:29:09.281Z,18.63
2023-03-11T11:31:38.179Z,16.73
2023-03-11T11:34:28.002Z,19.40
2023-03-11T11:36:58.288Z,16.83
2023-03-11T11:39:29.045Z,21.00
2023-03-11T11:42:01.940Z,19.47
2023-03-11T11:44:34.938Z,21.70
2023-03-11T11:47:10.393Z,14.13
2023-03-11T11:49:43.119Z,22.37
2023-03-11T11:52:15.420Z,22.20
2023-03-11T11:54:47.828Z,23.63
2023-03-11T11:57:19.224Z,22.53
2023-03-11T11:59:48.751Z,24.97
2023-03-11T12:02:35.416Z,25.40
2023-03-11T12:05:10.499Z,17.93
2023-03-11T12:07:51.989Z,19.47
2023-03-11T12:10:26.536Z,15.17
2023-03-11T12:13:20.500Z,18.10
2023-03-11T12:15:54.684Z,22.03
2023-03-11T12:18:28.159Z,20.60
2023-03-11T12:20:57.549Z,19.77
2023-03-11T12:23:37.933Z,19.07
2023-03-11T12:26:15.792Z,20.83
2023-03-11T12:28:50.296Z,18.87
2023-03-11T12:31:18.716Z,25.13
2023-03-11T12:33:51.167Z,24.00
2023-03-11T12:36:26.093Z,32.27
2023-03-11T12:38:55.850Z,23.00
2023-03-11T12:41:33.730Z,22.23
2023-03-11T12:44:05.756Z,22.93
2023-03-11T12:47:02.541Z,27.33
2023-03-11T12:49:31.868Z,23.47
2023-03-11T12:52:07.129Z,19.97
2023-03-11T12:54:36.864Z,22.90
2023-03-11T12:57:09.369Z,19.47
2023-03-11T13:00:02.831Z,16.80
2023-03-11T13:02:49.165Z,24.87
2023-03-11T13:05:24.847Z,23.33
2023-03-11T13:08:05.785Z,17.67
2023-03-11T13:10:40.574Z,26.63
2023-03-11T13:13:50.422Z,22.30
2023-03-11T13:16:39.712Z,26.93
2023-03-11T13:19:35.380Z,22.63
2023-03-11T13:22:05.141Z,22.03
2023-03-11T13:24:51.553Z,24.27
2023-03-11T13:27:36.254Z,21.77
2023-03-11T13:30:11.630Z,24.13
2023-03-11T13:32:55.256Z,22.30
2023-03-11T13:35:46.302Z,14.67
2023-03-11T13:38:41.023Z,13.70
2023-03-11T13:41:17.603Z,23.83
2023-03-11T13:43:48.809Z,20.00
2023-03-11T13:46:28.332Z,17.03
2023-03-11T13:49:04.317Z,12.93
2023-03-11T13:51:39.321Z,11.13
2023-03-11T13:54:23.962Z,9.13
2023-03-11T13:56:56.188Z,15.67
2023-03-11T13:59:26.077Z,17.57
2023-03-11T14:01:56.212Z,14.00
2023-03-11T14:04:29.744Z,16.07
2023-03-11T14:06:58.084Z,16.37
2023-03-11T14:09:28.945Z,13.93
2023-03-11T14:12:07.776Z,17.83
2023-03-11T14:14:50.549Z,12.77
2023-03-11T14:17:21.257Z,11.93
2023-03-11T14:20:10.528Z,11.27
2023-03-11T14:22:39.237Z,10.73
2023-03-11T14:25:10.927Z,7.97
2023-03-11T14:27:39.991Z,10.17
2023-03-11T14:30:09.375Z,9.27
2023-03-11T14:32:37.673Z,11.23
2023-03-11T14:35:20.713Z,12.63
2023-03-11T14:37:49.020Z,11.43
2023-03-11T14:40:26.790Z,9.33
2023-03-11T14:42:57.678Z,10.97
2023-03-11T14:45:29.894Z,9.23
2023-03-11T14:48:04.584Z,8.37
2023-03-11T14:50:36.271Z,8.27
2023-03-11T14:53:07.515Z,9.70
2023-03-11T14:55:40.473Z,9.73
2023-03-11T14:58:15.594Z,10.37
2023-03-11T15:00:48.679Z,8.67
2023-03-11T15:03:24.389Z,10.30
2023-03-11T15:05:56.202Z,7.53
2023-03-11T15:08:28.025Z,8.90
2023-03-11T15:11:04.220Z,10.60
2023-03-11T15:13:32.827Z,8.73
2023-03-11T15:16:02.722Z,8.90
2023-03-11T15:18:33.425Z,11.63
2023-03-11T15:21:06.182Z,12.37
2023-03-11T15:23:36.946Z,9.90
2023-03-11T15:26:07.119Z,9.63
2023-03-11T15:28:37.594Z,6.93
2023-03-11T15:31:31.167Z,7.13
2023-03-11T15:34:21.925Z,6.53
2023-03-11T15:37:02.897Z,6.90
2023-03-11T15:39:45.049Z,17.67
2023-03-11T15:42:22.973Z,14.10
2023-03-11T15:45:05.462Z,5.43
2023-03-11T15:47:33.597Z,9.03
2023-03-11T15:50:23.550Z,6.93
2023-03-11T15:52:55.143Z,6.27
2023-03-11T15:55:23.641Z,6.50
2023-03-11T15:57:53.964Z,6.37
2023-03-11T16:00:24.690Z,7.33
2023-03-11T16:02:54.568Z,5.47
2023-03-11T16:05:24.578Z,10.20
2023-03-11T16:07:54.192Z,10.17
2023-03-11T16:10:24.721Z,11.07
2023-03-11T16:12:53.060Z,6.70
2023-03-11T16:15:25.019Z,6.63
2023-03-11T16:17:53.854Z,6.70
2023-03-11T16:20:23.845Z,8.97
2023-03-11T16:22:58.511Z,6.37
2023-03-11T16:25:30.074Z,10.83
2023-03-11T16:27:58.660Z,8.37
2023-03-11T16:30:27.978Z,13.57
2023-03-11T16:32:56.351Z,11.43
2023-03-11T16:35:24.750Z,11.47
2023-03-11T16:37:54.485Z,10.03
2023-03-11T16:40:25.344Z,8.97
2023-03-11T16:42:57.129Z,9.67
2023-03-11T16:45:25.505Z,13.57
2023-03-11T16:47:53.679Z,13.30
2023-03-11T16:50:24.300Z,11.37
2023-03-11T16:52:52.680Z,8.97
2023-03-11T16:55:22.688Z,8.87
2023-03-11T16:57:50.822Z,11.93
2023-03-11T17:00:19.570Z,8.43
2023-03-11T17:02:58.990Z,11.67
2023-03-11T17:05:27.257Z,12.90
2023-03-11T17:08:03.330Z,7.57
2023-03-11T17:10:41.036Z,10.70
2023-03-11T17:13:09.423Z,15.13
2023-03-11T17:15:38.413Z,12.90
2023-03-11T17:18:08.406Z,11.70
2023-03-11T17:20:40.563Z,16.90
2023-03-11T17:23:08.706Z,15.13
2023-03-11T17:25:41.358Z,15.73
2023-03-11T17:28:10.504Z,11.33
2023-03-11T17:30:43.094Z,12.57
2023-03-11T17:33:11.331Z,15.67
2023-03-11T17:35:40.780Z,15.60
2023-03-11T17:38:08.992Z,15.27
2023-03-11T17:40:39.062Z,12.33
2023-03-11T17:43:07.682Z,13.80
2023-03-11T17:45:36.026Z,17.73
2023-03-11T17:48:04.170Z,12.60
2023-03-11T17:50:32.329Z,13.03
2023-03-11T17:53:00.480Z,16.83
2023-03-11T17:55:28.612Z,10.43
2023-03-11T17:57:58.211Z,9.30
2023-03-11T18:00:26.651Z,10.33
2023-03-11T18:02:54.794Z,18.27
2023-03-11T18:05:22.955Z,14.67
2023-03-11T18:07:55.110Z,11.70
2023-03-11T18:10:25.535Z,15.20
2023-03-11T18:12:53.656Z,8.60
2023-03-11T18:15:24.427Z,9.20
2023-03-11T18:17:52.871Z,8.00
2023-03-11T18:20:21.220Z,9.30
2023-03-11T18:22:49.419Z,9.23
2023-03-11T18:25:17.682Z,6.07
2023-03-11T18:27:45.811Z,7.13
2023-03-11T18:30:15.591Z,12.47
2023-03-11T18:32:45.196Z,11.63
2023-03-11T18:35:14.205Z,8.83
2023-03-11T18:37:42.539Z,9.80
2023-03-11T18:40:12.243Z,8.57
2023-03-11T18:42:40.420Z,9.47
2023-03-11T18:45:12.092Z,8.57
2023-03-11T18:47:40.294Z,9.47
2023-03-11T18:50:11.252Z,8.30
2023-03-11T18:52:39.433Z,9.87
2023-03-11T18:55:08.162Z,8.63
2023-03-11T18:57:36.343Z,13.23
2023-03-11T19:00:05.250Z,7.90
2023-03-11T19:02:33.538Z,6.90
2023-03-11T19:05:01.825Z,11.70
2023-03-11T19:07:31.532Z,11.07
2023-03-11T19:09:59.730Z,11.10
2023-03-11T19:12:29.603Z,8.13
2023-03-11T19:14:57.752Z,9.27
2023-03-11T19:17:25.991Z,13.27
2023-03-11T19:19:57.251Z,14.43
2023-03-11T19:22:25.460Z,14.70
2023-03-11T19:24:56.032Z,10.87
2023-03-11T19:27:24.254Z,9.80
2023-03-11T19:29:52.444Z,8.77
2023-03-11T19:32:20.612Z,11.70
2023-03-11T19:34:49.012Z,10.97
2023-03-11T19:37:17.396Z,9.43
2023-03-11T19:39:45.540Z,8.50
2023-03-11T19:42:15.073Z,7.33
2023-03-11T19:44:43.204Z,12.77
2023-03-11T19:47:19.532Z,8.67
2023-03-11T19:49:50.996Z,7.30
2023-03-11T19:52:19.139Z,7.20
2023-03-11T19:54:47.586Z,12.47
2023-03-11T19:57:17.683Z,9.13
2023-03-11T19:59:46.071Z,9.40
2023-03-11T20:02:14.931Z,10.60
2023-03-11T20:04:43.415Z,12.00
2023-03-11T20:07:11.767Z,11.23
2023-03-11T20:09:40.210Z,7.47
2023-03-11T20:12:09.049Z,10.87
2023-03-11T20:14:38.630Z,11.77
2023-03-11T20:17:07.712Z,12.50
2023-03-11T20:19:36.185Z,9.73
2023-03-11T20:22:04.376Z,13.90
2023-03-11T20:24:32.735Z,14.27
2023-03-11T20:27:00.889Z,12.00
2023-03-11T20:29:29.088Z,15.63
2023-03-11T20:31:58.695Z,11.00
2023-03-11T20:34:26.943Z,13.13
2023-03-11T20:36:55.104Z,11.90
2023-03-11T20:39:23.223Z,10.53
2023-03-11T20:41:51.360Z,11.37
2023-03-11T20:44:19.754Z,10.90
2023-03-11T20:46:49.498Z,11.57
2023-03-11T20:49:19.173Z,9.63
2023-03-11T20:51:48.167Z,7.67
2023-03-11T20:54:17.241Z,12.27
2023-03-11T20:56:45.465Z,11.20
2023-03-11T20:59:14.899Z,10.20
2023-03-11T21:01:43.240Z,16.83
2023-03-11T21:04:11.942Z,13.73
2023-03-11T21:06:42.002Z,15.60
2023-03-11T21:09:13.902Z,21.67
2023-03-11T21:11:42.879Z,16.30
2023-03-11T21:14:12.424Z,21.73
2023-03-11T21:16:40.743Z,16.30
2023-03-11T21:19:10.286Z,10.57
2023-03-11T21:21:38.935Z,15.53
2023-03-11T21:24:09.215Z,15.57
2023-03-11T21:26:37.767Z,25.90
2023-03-11T21:29:06.018Z,57.47
2023-03-11T21:31:34.910Z,32.70
2023-03-11T21:34:03.238Z,14.10
2023-03-11T21:36:31.442Z,12.37
2023-03-11T21:39:01.474Z,15.63
2023-03-11T21:41:32.535Z,16.03
2023-03-11T21:44:00.806Z,11.50
2023-03-11T21:46:30.518Z,9.43
2023-03-11T21:48:59.716Z,10.53
2023-03-11T21:51:28.544Z,10.30
2023-03-11T21:53:57.076Z,16.10
2023-03-11T21:56:25.276Z,12.00
2023-03-11T21:58:54.864Z,14.40
2023-03-11T22:01:23.342Z,9.80
2023-03-11T22:03:51.647Z,13.60
2023-03-11T22:06:20.010Z,15.17
2023-03-11T22:08:48.559Z,12.73
2023-03-11T22:11:19.509Z,16.77
2023-03-11T22:13:49.472Z,16.37
2023-03-11T22:16:19.940Z,15.00
2023-03-11T22:18:48.262Z,12.70
2023-03-11T22:21:16.913Z,16.43
2023-03-11T22:23:46.147Z,14.23
2023-03-11T22:26:15.009Z,11.40
2023-03-11T22:28:43.220Z,15.57
2023-03-11T22:31:13.302Z,16.93
2023-03-11T22:33:43.007Z,14.63
2023-03-11T22:36:11.398Z,18.07
2023-03-11T22:38:42.014Z,16.00
2023-03-11T22:41:10.729Z,14.57
2023-03-11T22:43:39.458Z,11.47
2023-03-11T22:46:08.046Z,15.17
2023-03-11T22:48:36.374Z,15.33
2023-03-11T22:51:07.102Z,50.77
2023-03-11T22:53:35.376Z,17.80
2023-03-11T22:56:08.740Z,19.63
2023-03-11T22:58:36.898Z,17.77
2023-03-11T23:01:05.553Z,14.40
2023-03-11T23:03:34.895Z,14.03
2023-03-11T23:06:06.922Z,12.83
2023-03-11T23:08:36.105Z,14.27
2023-03-11T23:11:05.674Z,17.40
2023-03-11T23:13:35.806Z,16.77
2023-03-11T23:16:08.572Z,17.67
2023-03-11T23:18:37.266Z,16.63
2023-03-11T23:21:14.287Z,8.50
2023-03-11T23:23:42.430Z,11.57
2023-03-11T23:26:11.615Z,12.40
2023-03-11T23:28:41.163Z,11.33
2023-03-11T23:31:09.782Z,15.60
2023-03-11T23:33:38.930Z,12.67
2023-03-11T23:36:10.967Z,13.23
2023-03-11T23:38:40.033Z,10.60
2023-03-11T23:41:08.914Z,11.03
2023-03-11T23:43:37.554Z,15.63
2023-03-11T23:46:06.008Z,13.10
2023-03-11T23:48:34.290Z,17.73
2023-03-11T23:51:02.524Z,14.40
2023-03-11T23:53:34.384Z,15.70
2023-03-11T23:56:02.682Z,17.53
2023-03-11T23:58:32.957Z,15.17
